sensor_id;sensor_type;location;lat;lon;timestamp;temperature;humidity
6740;DHT22;3407;49.882;10.920;2023-04-01T00:00:14;8.80;1.00
6740;DHT22;3407;49.882;10.920;2023-04-01T00:05:10;8.80;1.00
6740;DHT22;3407;49.882;10.920;2023-04-01T00:10:08;8.90;1.00
6740;DHT22;3407;49.882;10.920;2023-04-01T00:15:06;8.90;1.00
6740;DHT22;3407;49.882;10.920;2023-04-01T00:20:03;8.90;1.00
6740;DHT22;3407;49.882;10.920;2023-04-01T00:24:58;9.00;1.00
6740;DHT22;3407;49.882;10.920;2023-04-01T00:29:54;9.00;1.00
6740;DHT22;3407;49.882;10.920;2023-04-01T00:34:50;9.00;1.00
6740;DHT22;3407;49.882;10.920;2023-04-01T00:39:47;9.10;1.00
6740;DHT22;3407;49.882;10.920;2023-04-01T00:44:44;9.10;1.00
6740;DHT22;3407;49.882;10.920;2023-04-01T00:49:43;9.20;1.00
6740;DHT22;3407;49.882;10.920;2023-04-01T00:54:41;9.30;1.00
6740;DHT22;3407;49.882;10.920;2023-04-01T00:59:41;9.30;1.00
6740;DHT22;3407;49.882;10.920;2023-04-01T01:04:38;9.40;1.00
6740;DHT22;3407;49.882;10.920;2023-04-01T01:35:38;9.70;1.00
6740;DHT22;3407;49.882;10.920;2023-04-01T01:40:35;9.70;99.90
6740;DHT22;3407;49.882;10.920;2023-04-01T01:45:34;9.60;99.90
6740;DHT22;3407;49.882;10.920;2023-04-01T01:50:30;9.50;99.90
6740;DHT22;3407;49.882;10.920;2023-04-01T01:55:38;9.50;1.00
6740;DHT22;3407;49.882;10.920;2023-04-01T02:00:35;9.60;1.00
6740;DHT22;3407;49.882;10.920;2023-04-01T02:05:31;9.60;1.00
6740;DHT22;3407;49.882;10.920;2023-04-01T02:10:28;9.60;1.00
6740;DHT22;3407;49.882;10.920;2023-04-01T02:15:28;9.60;1.00
6740;DHT22;3407;49.882;10.920;2023-04-01T02:20:28;9.70;99.90
6740;DHT22;3407;49.882;10.920;2023-04-01T02:25:30;9.60;99.90
6740;DHT22;3407;49.882;10.920;2023-04-01T02:30:31;9.70;99.90
6740;DHT22;3407;49.882;10.920;2023-04-01T02:35:28;9.60;99.90
6740;DHT22;3407;49.882;10.920;2023-04-01T02:40:24;9.50;99.90
6740;DHT22;3407;49.882;10.920;2023-04-01T02:45:19;9.50;99.90
6740;DHT22;3407;49.882;10.920;2023-04-01T02:50:15;9.50;99.90
6740;DHT22;3407;49.882;10.920;2023-04-01T02:55:12;9.50;99.90
6740;DHT22;3407;49.882;10.920;2023-04-01T03:00:07;9.60;99.90
6740;DHT22;3407;49.882;10.920;2023-04-01T03:05:06;9.50;99.90
6740;DHT22;3407;49.882;10.920;2023-04-01T03:10:02;9.60;1.00
6740;DHT22;3407;49.882;10.920;2023-04-01T03:14:58;9.60;1.00
6740;DHT22;3407;49.882;10.920;2023-04-01T03:19:53;9.60;1.00
6740;DHT22;3407;49.882;10.920;2023-04-01T03:24:49;9.60;1.00
6740;DHT22;3407;49.882;10.920;2023-04-01T03:29:44;9.60;73.30
6740;DHT22;3407;49.882;10.920;2023-04-01T03:34:40;9.60;1.00
6740;DHT22;3407;49.882;10.920;2023-04-01T03:39:36;9.60;1.00
6740;DHT22;3407;49.882;10.920;2023-04-01T03:44:35;9.60;99.80
6740;DHT22;3407;49.882;10.920;2023-04-01T03:49:30;9.60;55.80
6740;DHT22;3407;49.882;10.920;2023-04-01T03:54:27;9.60;99.90
6740;DHT22;3407;49.882;10.920;2023-04-01T03:59:22;9.60;63.90
6740;DHT22;3407;49.882;10.920;2023-04-01T04:04:18;9.60;99.90
6740;DHT22;3407;49.882;10.920;2023-04-01T04:09:13;9.60;1.00
6740;DHT22;3407;49.882;10.920;2023-04-01T04:14:09;9.60;1.00
6740;DHT22;3407;49.882;10.920;2023-04-01T04:19:05;9.60;1.00
6740;DHT22;3407;49.882;10.920;2023-04-01T04:24:01;9.60;14.70
6740;DHT22;3407;49.882;10.920;2023-04-01T04:28:57;9.60;1.00
6740;DHT22;3407;49.882;10.920;2023-04-01T04:33:52;9.60;68.40
6740;DHT22;3407;49.882;10.920;2023-04-01T04:38:48;9.60;1.00
6740;DHT22;3407;49.882;10.920;2023-04-01T04:43:50;9.60;1.00
6740;DHT22;3407;49.882;10.920;2023-04-01T04:48:46;9.60;1.00
6740;DHT22;3407;49.882;10.920;2023-04-01T04:53:42;9.60;1.00
6740;DHT22;3407;49.882;10.920;2023-04-01T04:58:38;9.60;1.00
6740;DHT22;3407;49.882;10.920;2023-04-01T05:03:34;9.60;1.00
6740;DHT22;3407;49.882;10.920;2023-04-01T05:08:29;9.60;1.00
6740;DHT22;3407;49.882;10.920;2023-04-01T05:13:25;9.60;1.00
6740;DHT22;3407;49.882;10.920;2023-04-01T05:18:21;9.60;1.00
6740;DHT22;3407;49.882;10.920;2023-04-01T05:23:17;9.60;1.00
6740;DHT22;3407;49.882;10.920;2023-04-01T05:28:13;9.60;99.90
6740;DHT22;3407;49.882;10.920;2023-04-01T05:33:09;9.70;26.10
6740;DHT22;3407;49.882;10.920;2023-04-01T05:38:05;9.70;1.00
6740;DHT22;3407;49.882;10.920;2023-04-01T05:43:01;9.70;67.30
6740;DHT22;3407;49.882;10.920;2023-04-01T05:47:57;9.70;99.90
6740;DHT22;3407;49.882;10.920;2023-04-01T05:52:52;9.80;99.90
6740;DHT22;3407;49.882;10.920;2023-04-01T05:57:48;9.90;1.00
6740;DHT22;3407;49.882;10.920;2023-04-01T06:02:44;9.90;37.30
6740;DHT22;3407;49.882;10.920;2023-04-01T06:07:41;10.00;1.00
6740;DHT22;3407;49.882;10.920;2023-04-01T06:18:10;10.10;99.90
6740;DHT22;3407;49.882;10.920;2023-04-01T06:23:21;10.20;1.00
6740;DHT22;3407;49.882;10.920;2023-04-01T06:33:47;10.30;99.90
6740;DHT22;3407;49.882;10.920;2023-04-01T06:39:06;10.10;1.00
6740;DHT22;3407;49.882;10.920;2023-04-01T06:49:39;9.90;99.90
6740;DHT22;3407;49.882;10.920;2023-04-01T06:54:48;9.90;99.90
6740;DHT22;3407;49.882;10.920;2023-04-01T06:59:44;9.90;99.90
6740;DHT22;3407;49.882;10.920;2023-04-01T07:04:48;10.00;52.40
6740;DHT22;3407;49.882;10.920;2023-04-01T07:09:53;10.00;99.90
6740;DHT22;3407;49.882;10.920;2023-04-01T07:14:53;10.00;99.90
6740;DHT22;3407;49.882;10.920;2023-04-01T07:19:58;9.90;1.00
6740;DHT22;3407;49.882;10.920;2023-04-01T07:24:57;10.00;1.00
6740;DHT22;3407;49.882;10.920;2023-04-01T07:29:57;9.90;1.00
6740;DHT22;3407;49.882;10.920;2023-04-01T07:35:15;9.90;1.00
6740;DHT22;3407;49.882;10.920;2023-04-01T07:40:32;9.90;1.00
6740;DHT22;3407;49.882;10.920;2023-04-01T07:56:12;9.70;1.00
6740;DHT22;3407;49.882;10.920;2023-04-01T08:01:39;9.80;1.00
6740;DHT22;3407;49.882;10.920;2023-04-01T08:07:13;9.80;1.00
6740;DHT22;3407;49.882;10.920;2023-04-01T08:17:47;9.70;1.00
6740;DHT22;3407;49.882;10.920;2023-04-01T08:23:13;9.70;1.00
6740;DHT22;3407;49.882;10.920;2023-04-01T08:28:18;9.80;1.00
6740;DHT22;3407;49.882;10.920;2023-04-01T08:33:21;9.80;1.00
6740;DHT22;3407;49.882;10.920;2023-04-01T08:38:37;10.00;1.00
6740;DHT22;3407;49.882;10.920;2023-04-01T08:49:01;10.10;1.00
6740;DHT22;3407;49.882;10.920;2023-04-01T08:59:32;9.90;1.00
6740;DHT22;3407;49.882;10.920;2023-04-01T09:41:20;10.20;1.00
6740;DHT22;3407;49.882;10.920;2023-04-01T09:46:52;10.20;1.00
6740;DHT22;3407;49.882;10.920;2023-04-01T09:52:13;10.10;1.00
6740;DHT22;3407;49.882;10.920;2023-04-01T10:02:36;10.00;1.00
6740;DHT22;3407;49.882;10.920;2023-04-01T10:08:08;10.10;1.00
6740;DHT22;3407;49.882;10.920;2023-04-01T10:35:03;9.90;1.00
6740;DHT22;3407;49.882;10.920;2023-04-01T10:51:04;10.60;3.10
6740;DHT22;3407;49.882;10.920;2023-04-01T10:56:20;10.60;10.10
6740;DHT22;3407;49.882;10.920;2023-04-01T11:01:47;10.60;6.00
6740;DHT22;3407;49.882;10.920;2023-04-01T11:18:00;11.20;8.70
6740;DHT22;3407;49.882;10.920;2023-04-01T11:29:00;11.60;1.00
6740;DHT22;3407;49.882;10.920;2023-04-01T11:39:57;11.00;1.00
6740;DHT22;3407;49.882;10.920;2023-04-01T11:45:19;10.80;1.00
6740;DHT22;3407;49.882;10.920;2023-04-01T11:55:56;10.40;2.30
6740;DHT22;3407;49.882;10.920;2023-04-01T12:01:08;10.20;14.00
6740;DHT22;3407;49.882;10.920;2023-04-01T12:11:59;10.10;24.10
6740;DHT22;3407;49.882;10.920;2023-04-01T12:17:24;10.10;8.00
6740;DHT22;3407;49.882;10.920;2023-04-01T12:27:39;10.50;4.20
6740;DHT22;3407;49.882;10.920;2023-04-01T12:37:51;10.60;12.80
6740;DHT22;3407;49.882;10.920;2023-04-01T12:42:57;10.90;27.90
6740;DHT22;3407;49.882;10.920;2023-04-01T12:59:25;11.10;1.00
6740;DHT22;3407;49.882;10.920;2023-04-01T13:04:35;11.00;14.00
6740;DHT22;3407;49.882;10.920;2023-04-01T13:09:45;10.90;20.00
6740;DHT22;3407;49.882;10.920;2023-04-01T13:19:59;10.40;33.80
6740;DHT22;3407;49.882;10.920;2023-04-01T13:35:26;10.40;69.80
6740;DHT22;3407;49.882;10.920;2023-04-01T13:40:41;10.60;74.30
6740;DHT22;3407;49.882;10.920;2023-04-01T13:46:06;10.90;72.60
6740;DHT22;3407;49.882;10.920;2023-04-01T13:51:21;11.00;62.30
6740;DHT22;3407;49.882;10.920;2023-04-01T13:56:56;10.90;49.00
6740;DHT22;3407;49.882;10.920;2023-04-01T14:12:46;11.20;49.60
6740;DHT22;3407;49.882;10.920;2023-04-01T14:23:24;10.90;29.30
6740;DHT22;3407;49.882;10.920;2023-04-01T14:39:15;11.10;20.40
6740;DHT22;3407;49.882;10.920;2023-04-01T14:44:33;11.20;23.70
6740;DHT22;3407;49.882;10.920;2023-04-01T14:50:03;11.20;20.20
6740;DHT22;3407;49.882;10.920;2023-04-01T14:54:51;11.20;13.50
6740;DHT22;3407;49.882;10.920;2023-04-01T14:59:51;11.20;1.00
6740;DHT22;3407;49.882;10.920;2023-04-01T15:05:15;11.30;5.20
6740;DHT22;3407;49.882;10.920;2023-04-01T15:10:31;11.40;1.80
6740;DHT22;3407;49.882;10.920;2023-04-01T15:15:58;11.50;19.40
6740;DHT22;3407;49.882;10.920;2023-04-01T15:26:20;11.50;11.00
6740;DHT22;3407;49.882;10.920;2023-04-01T15:31:37;11.30;3.80
6740;DHT22;3407;49.882;10.920;2023-04-01T15:42:14;11.30;34.20
6740;DHT22;3407;49.882;10.920;2023-04-01T15:58:35;10.90;20.20
6740;DHT22;3407;49.882;10.920;2023-04-01T16:08:56;10.70;16.50
6740;DHT22;3407;49.882;10.920;2023-04-01T16:24:35;10.80;26.30
6740;DHT22;3407;49.882;10.920;2023-04-01T16:30:18;10.60;19.20
6740;DHT22;3407;49.882;10.920;2023-04-01T16:35:36;10.60;31.50
6740;DHT22;3407;49.882;10.920;2023-04-01T16:41:07;10.50;30.90
6740;DHT22;3407;49.882;10.920;2023-04-01T16:51:17;10.30;38.30
6740;DHT22;3407;49.882;10.920;2023-04-01T16:56:20;10.20;38.20
6740;DHT22;3407;49.882;10.920;2023-04-01T17:06:49;9.90;53.80
6740;DHT22;3407;49.882;10.920;2023-04-01T17:22:27;9.70;71.00
6740;DHT22;3407;49.882;10.920;2023-04-01T17:33:25;9.70;73.50
6740;DHT22;3407;49.882;10.920;2023-04-01T17:38:48;9.70;72.10
6740;DHT22;3407;49.882;10.920;2023-04-01T17:43:34;9.60;71.10
6740;DHT22;3407;49.882;10.920;2023-04-01T17:48:44;9.60;71.00
6740;DHT22;3407;49.882;10.920;2023-04-01T17:53:53;9.60;71.60
6740;DHT22;3407;49.882;10.920;2023-04-01T17:59:01;9.50;73.30
6740;DHT22;3407;49.882;10.920;2023-04-01T18:04:12;9.50;74.50
6740;DHT22;3407;49.882;10.920;2023-04-01T18:25:38;9.50;70.10
6740;DHT22;3407;49.882;10.920;2023-04-01T18:30:36;9.50;69.10
6740;DHT22;3407;49.882;10.920;2023-04-01T18:35:38;9.50;66.60
6740;DHT22;3407;49.882;10.920;2023-04-01T18:41:10;9.50;65.80
6740;DHT22;3407;49.882;10.920;2023-04-01T18:46:13;9.50;61.20
6740;DHT22;3407;49.882;10.920;2023-04-01T18:56:23;9.50;58.10
6740;DHT22;3407;49.882;10.920;2023-04-01T19:11:44;9.60;53.00
6740;DHT22;3407;49.882;10.920;2023-04-01T19:27:34;9.40;55.70
6740;DHT22;3407;49.882;10.920;2023-04-01T19:32:48;9.30;62.00
6740;DHT22;3407;49.882;10.920;2023-04-01T19:37:56;9.30;69.20
6740;DHT22;3407;49.882;10.920;2023-04-01T19:53:35;9.20;87.70
6740;DHT22;3407;49.882;10.920;2023-04-01T19:58:47;9.10;90.30
6740;DHT22;3407;49.882;10.920;2023-04-01T20:03:58;9.10;92.30
6740;DHT22;3407;49.882;10.920;2023-04-01T20:09:24;9.10;92.70
6740;DHT22;3407;49.882;10.920;2023-04-01T20:14:42;9.10;92.90
6740;DHT22;3407;49.882;10.920;2023-04-01T20:19:43;9.00;94.20
6740;DHT22;3407;49.882;10.920;2023-04-01T20:24:45;9.10;95.30
6740;DHT22;3407;49.882;10.920;2023-04-01T20:29:55;9.00;95.30
6740;DHT22;3407;49.882;10.920;2023-04-01T20:40:17;9.10;95.50
6740;DHT22;3407;49.882;10.920;2023-04-01T20:50:32;9.10;95.90
6740;DHT22;3407;49.882;10.920;2023-04-01T20:55:52;9.10;94.90
6740;DHT22;3407;49.882;10.920;2023-04-01T21:01:15;9.00;95.20
6740;DHT22;3407;49.882;10.920;2023-04-01T21:06:21;9.00;96.10
6740;DHT22;3407;49.882;10.920;2023-04-01T21:11:35;9.00;96.50
6740;DHT22;3407;49.882;10.920;2023-04-01T21:16:47;9.00;97.00
6740;DHT22;3407;49.882;10.920;2023-04-01T21:26:58;9.00;97.40
6740;DHT22;3407;49.882;10.920;2023-04-01T21:42:43;8.90;96.90
6740;DHT22;3407;49.882;10.920;2023-04-01T22:04:03;8.70;93.10
6740;DHT22;3407;49.882;10.920;2023-04-01T22:09:54;8.70;93.30
6740;DHT22;3407;49.882;10.920;2023-04-01T22:14:45;8.70;93.20
6740;DHT22;3407;49.882;10.920;2023-04-01T22:25:15;8.70;94.10
6740;DHT22;3407;49.882;10.920;2023-04-01T22:30:24;8.70;94.20
6740;DHT22;3407;49.882;10.920;2023-04-01T22:35:27;8.70;94.70
6740;DHT22;3407;49.882;10.920;2023-04-01T22:40:47;8.70;94.80
6740;DHT22;3407;49.882;10.920;2023-04-01T22:46:01;8.70;94.40
6740;DHT22;3407;49.882;10.920;2023-04-01T22:51:07;8.70;95.50
6740;DHT22;3407;49.882;10.920;2023-04-01T22:56:15;8.70;97.20
6740;DHT22;3407;49.882;10.920;2023-04-01T23:01:16;8.80;98.80
6740;DHT22;3407;49.882;10.920;2023-04-01T23:06:27;8.70;98.80
6740;DHT22;3407;49.882;10.920;2023-04-01T23:11:55;8.70;99.90
6740;DHT22;3407;49.882;10.920;2023-04-01T23:17:11;8.70;99.90
6740;DHT22;3407;49.882;10.920;2023-04-01T23:22:20;8.70;99.90
6740;DHT22;3407;49.882;10.920;2023-04-01T23:27:32;8.60;99.90
6740;DHT22;3407;49.882;10.920;2023-04-01T23:32:30;8.70;99.90
6740;DHT22;3407;49.882;10.920;2023-04-01T23:37:26;8.60;99.90
6740;DHT22;3407;49.882;10.920;2023-04-01T23:42:30;8.60;99.90
6740;DHT22;3407;49.882;10.920;2023-04-01T23:47:35;8.60;99.90
6740;DHT22;3407;49.882;10.920;2023-04-01T23:52:36;8.60;99.90
6740;DHT22;3407;49.882;10.920;2023-04-01T23:57:36;8.60;99.90
